sensor_id;sensor_type;location;lat;lon;timestamp;P1;durP1;ratioP1;P2;durP2;ratioP2
16510;SDS011;8368;48.772;8.754;2022-10-17T00:01:52;3.03;;;2.77;;
16510;SDS011;8368;48.772;8.754;2022-10-17T00:04:17;3.80;;;2.73;;
16510;SDS011;8368;48.772;8.754;2022-10-17T00:06:43;2.77;;;2.67;;
16510;SDS011;8368;48.772;8.754;2022-10-17T00:09:08;5.50;;;3.00;;
16510;SDS011;8368;48.772;8.754;2022-10-17T00:11:34;5.73;;;2.87;;
16510;SDS011;8368;48.772;8.754;2022-10-17T00:14:00;6.97;;;3.67;;
16510;SDS011;8368;48.772;8.754;2022-10-17T00:16:27;3.90;;;3.50;;
16510;SDS011;8368;48.772;8.754;2022-10-17T00:18:54;3.37;;;3.17;;
16510;SDS011;8368;48.772;8.754;2022-10-17T00:21:21;3.20;;;2.97;;
16510;SDS011;8368;48.772;8.754;2022-10-17T00:23:47;4.77;;;3.50;;
16510;SDS011;8368;48.772;8.754;2022-10-17T00:26:14;3.63;;;3.23;;
16510;SDS011;8368;48.772;8.754;2022-10-17T00:28:40;3.67;;;2.80;;
16510;SDS011;8368;48.772;8.754;2022-10-17T00:31:05;3.73;;;3.13;;
16510;SDS011;8368;48.772;8.754;2022-10-17T00:33:32;4.83;;;3.00;;
16510;SDS011;8368;48.772;8.754;2022-10-17T00:36:06;6.23;;;3.10;;
16510;SDS011;8368;48.772;8.754;2022-10-17T00:38:54;6.93;;;3.20;;
16510;SDS011;8368;48.772;8.754;2022-10-17T00:41:23;3.50;;;3.27;;
16510;SDS011;8368;48.772;8.754;2022-10-17T00:46:26;4.10;;;3.70;;
16510;SDS011;8368;48.772;8.754;2022-10-17T00:48:53;9.23;;;3.60;;
16510;SDS011;8368;48.772;8.754;2022-10-17T00:51:22;3.93;;;3.63;;
16510;SDS011;8368;48.772;8.754;2022-10-17T00:53:53;4.83;;;3.10;;
16510;SDS011;8368;48.772;8.754;2022-10-17T00:56:20;3.90;;;3.60;;
16510;SDS011;8368;48.772;8.754;2022-10-17T00:58:46;8.07;;;3.43;;
16510;SDS011;8368;48.772;8.754;2022-10-17T01:01:12;4.10;;;3.70;;
16510;SDS011;8368;48.772;8.754;2022-10-17T01:03:37;4.40;;;3.57;;
16510;SDS011;8368;48.772;8.754;2022-10-17T01:06:03;4.13;;;3.60;;
16510;SDS011;8368;48.772;8.754;2022-10-17T01:08:29;7.73;;;4.00;;
16510;SDS011;8368;48.772;8.754;2022-10-17T01:13:30;5.43;;;3.97;;
16510;SDS011;8368;48.772;8.754;2022-10-17T01:16:15;6.00;;;4.33;;
16510;SDS011;8368;48.772;8.754;2022-10-17T01:21:58;3.90;;;3.70;;
16510;SDS011;8368;48.772;8.754;2022-10-17T01:24:32;6.00;;;3.70;;
16510;SDS011;8368;48.772;8.754;2022-10-17T01:35:59;3.83;;;3.57;;
16510;SDS011;8368;48.772;8.754;2022-10-17T01:38:33;7.10;;;3.90;;
16510;SDS011;8368;48.772;8.754;2022-10-17T01:41:09;4.20;;;3.80;;
16510;SDS011;8368;48.772;8.754;2022-10-17T01:46:30;4.20;;;3.77;;
16510;SDS011;8368;48.772;8.754;2022-10-17T01:49:03;8.20;;;4.60;;
16510;SDS011;8368;48.772;8.754;2022-10-17T01:51:34;4.80;;;4.40;;
16510;SDS011;8368;48.772;8.754;2022-10-17T01:54:22;9.40;;;4.30;;
16510;SDS011;8368;48.772;8.754;2022-10-17T01:56:53;6.43;;;4.13;;
16510;SDS011;8368;48.772;8.754;2022-10-17T01:59:24;7.20;;;4.73;;
16510;SDS011;8368;48.772;8.754;2022-10-17T02:01:55;5.23;;;4.70;;
16510;SDS011;8368;48.772;8.754;2022-10-17T02:04:22;8.13;;;4.77;;
16510;SDS011;8368;48.772;8.754;2022-10-17T02:06:49;6.60;;;4.40;;
16510;SDS011;8368;48.772;8.754;2022-10-17T02:09:15;4.80;;;4.27;;
16510;SDS011;8368;48.772;8.754;2022-10-17T02:11:57;5.73;;;4.67;;
16510;SDS011;8368;48.772;8.754;2022-10-17T02:20:09;6.10;;;4.40;;
16510;SDS011;8368;48.772;8.754;2022-10-17T02:22:42;6.93;;;4.47;;
16510;SDS011;8368;48.772;8.754;2022-10-17T02:25:20;7.80;;;4.83;;
16510;SDS011;8368;48.772;8.754;2022-10-17T02:30:41;7.00;;;4.83;;
16510;SDS011;8368;48.772;8.754;2022-10-17T02:33:28;7.40;;;5.17;;
16510;SDS011;8368;48.772;8.754;2022-10-17T02:35:59;8.13;;;5.00;;
16510;SDS011;8368;48.772;8.754;2022-10-17T02:38:29;5.23;;;4.23;;
16510;SDS011;8368;48.772;8.754;2022-10-17T02:40:57;6.17;;;4.10;;
16510;SDS011;8368;48.772;8.754;2022-10-17T02:43:23;6.50;;;4.40;;
16510;SDS011;8368;48.772;8.754;2022-10-17T02:45:49;7.27;;;4.13;;
16510;SDS011;8368;48.772;8.754;2022-10-17T02:48:23;7.13;;;4.47;;
16510;SDS011;8368;48.772;8.754;2022-10-17T02:50:59;6.13;;;3.70;;
16510;SDS011;8368;48.772;8.754;2022-10-17T02:53:42;5.07;;;3.83;;
16510;SDS011;8368;48.772;8.754;2022-10-17T02:56:30;6.00;;;3.90;;
16510;SDS011;8368;48.772;8.754;2022-10-17T02:59:00;5.57;;;4.10;;
16510;SDS011;8368;48.772;8.754;2022-10-17T03:01:30;5.53;;;3.93;;
16510;SDS011;8368;48.772;8.754;2022-10-17T03:04:05;9.67;;;4.13;;
16510;SDS011;8368;48.772;8.754;2022-10-17T03:06:35;4.73;;;3.47;;
16510;SDS011;8368;48.772;8.754;2022-10-17T03:09:01;6.67;;;3.60;;
16510;SDS011;8368;48.772;8.754;2022-10-17T03:11:27;10.80;;;3.80;;
16510;SDS011;8368;48.772;8.754;2022-10-17T03:13:53;12.97;;;4.20;;
16510;SDS011;8368;48.772;8.754;2022-10-17T03:16:18;11.80;;;3.87;;
16510;SDS011;8368;48.772;8.754;2022-10-17T03:18:44;4.10;;;3.70;;
16510;SDS011;8368;48.772;8.754;2022-10-17T03:21:09;4.30;;;3.90;;
16510;SDS011;8368;48.772;8.754;2022-10-17T03:23:35;8.33;;;4.07;;
16510;SDS011;8368;48.772;8.754;2022-10-17T03:26:04;9.70;;;3.90;;
16510;SDS011;8368;48.772;8.754;2022-10-17T03:28:31;6.23;;;3.90;;
16510;SDS011;8368;48.772;8.754;2022-10-17T03:30:56;6.83;;;3.80;;
16510;SDS011;8368;48.772;8.754;2022-10-17T03:33:22;4.37;;;3.97;;
16510;SDS011;8368;48.772;8.754;2022-10-17T03:35:47;13.00;;;4.83;;
16510;SDS011;8368;48.772;8.754;2022-10-17T03:38:13;5.33;;;4.30;;
16510;SDS011;8368;48.772;8.754;2022-10-17T03:40:38;8.93;;;4.40;;
16510;SDS011;8368;48.772;8.754;2022-10-17T03:43:04;5.33;;;4.70;;
16510;SDS011;8368;48.772;8.754;2022-10-17T03:45:30;7.87;;;4.03;;
16510;SDS011;8368;48.772;8.754;2022-10-17T03:47:57;14.80;;;4.67;;
16510;SDS011;8368;48.772;8.754;2022-10-17T03:50:23;8.60;;;4.00;;
16510;SDS011;8368;48.772;8.754;2022-10-17T03:52:48;9.40;;;4.07;;
16510;SDS011;8368;48.772;8.754;2022-10-17T03:55:14;11.97;;;5.67;;
16510;SDS011;8368;48.772;8.754;2022-10-17T03:57:40;12.23;;;8.77;;
16510;SDS011;8368;48.772;8.754;2022-10-17T04:00:06;15.27;;;8.90;;
16510;SDS011;8368;48.772;8.754;2022-10-17T04:02:32;13.13;;;8.30;;
16510;SDS011;8368;48.772;8.754;2022-10-17T04:04:59;11.93;;;7.00;;
16510;SDS011;8368;48.772;8.754;2022-10-17T04:07:25;9.13;;;6.20;;
16510;SDS011;8368;48.772;8.754;2022-10-17T04:09:50;5.20;;;4.80;;
16510;SDS011;8368;48.772;8.754;2022-10-17T04:12:16;7.00;;;5.80;;
16510;SDS011;8368;48.772;8.754;2022-10-17T04:14:41;7.43;;;6.17;;
16510;SDS011;8368;48.772;8.754;2022-10-17T04:17:07;5.57;;;4.90;;
16510;SDS011;8368;48.772;8.754;2022-10-17T04:19:33;9.00;;;5.20;;
16510;SDS011;8368;48.772;8.754;2022-10-17T04:21:58;7.00;;;5.53;;
16510;SDS011;8368;48.772;8.754;2022-10-17T04:24:24;9.40;;;6.23;;
16510;SDS011;8368;48.772;8.754;2022-10-17T04:26:49;9.80;;;5.80;;
16510;SDS011;8368;48.772;8.754;2022-10-17T04:29:15;14.53;;;6.17;;
16510;SDS011;8368;48.772;8.754;2022-10-17T04:31:41;11.17;;;6.23;;
16510;SDS011;8368;48.772;8.754;2022-10-17T04:34:06;9.77;;;5.70;;
16510;SDS011;8368;48.772;8.754;2022-10-17T04:36:32;6.30;;;5.13;;
16510;SDS011;8368;48.772;8.754;2022-10-17T04:38:58;6.80;;;5.20;;
16510;SDS011;8368;48.772;8.754;2022-10-17T04:41:27;9.37;;;5.30;;
16510;SDS011;8368;48.772;8.754;2022-10-17T04:43:53;9.70;;;6.83;;
16510;SDS011;8368;48.772;8.754;2022-10-17T04:46:18;13.67;;;8.70;;
16510;SDS011;8368;48.772;8.754;2022-10-17T04:48:44;10.93;;;8.20;;
16510;SDS011;8368;48.772;8.754;2022-10-17T04:51:11;10.73;;;6.73;;
16510;SDS011;8368;48.772;8.754;2022-10-17T04:53:38;9.10;;;6.97;;
16510;SDS011;8368;48.772;8.754;2022-10-17T04:56:12;7.60;;;6.80;;
16510;SDS011;8368;48.772;8.754;2022-10-17T04:58:40;7.17;;;6.47;;
16510;SDS011;8368;48.772;8.754;2022-10-17T05:01:07;7.60;;;6.27;;
16510;SDS011;8368;48.772;8.754;2022-10-17T05:03:34;6.20;;;5.60;;
16510;SDS011;8368;48.772;8.754;2022-10-17T05:06:06;5.83;;;5.10;;
16510;SDS011;8368;48.772;8.754;2022-10-17T05:08:37;6.13;;;4.90;;
16510;SDS011;8368;48.772;8.754;2022-10-17T05:11:03;7.63;;;5.03;;
16510;SDS011;8368;48.772;8.754;2022-10-17T05:13:30;10.30;;;4.87;;
16510;SDS011;8368;48.772;8.754;2022-10-17T05:15:57;5.13;;;4.73;;
16510;SDS011;8368;48.772;8.754;2022-10-17T05:18:24;5.33;;;4.17;;
16510;SDS011;8368;48.772;8.754;2022-10-17T05:20:49;5.37;;;4.87;;
16510;SDS011;8368;48.772;8.754;2022-10-17T05:23:15;6.37;;;5.33;;
16510;SDS011;8368;48.772;8.754;2022-10-17T05:25:40;9.07;;;5.87;;
16510;SDS011;8368;48.772;8.754;2022-10-17T05:28:06;7.03;;;5.80;;
16510;SDS011;8368;48.772;8.754;2022-10-17T05:30:31;6.87;;;5.67;;
16510;SDS011;8368;48.772;8.754;2022-10-17T05:32:58;8.33;;;5.20;;
16510;SDS011;8368;48.772;8.754;2022-10-17T05:35:24;7.73;;;5.40;;
16510;SDS011;8368;48.772;8.754;2022-10-17T05:37:49;5.30;;;4.80;;
16510;SDS011;8368;48.772;8.754;2022-10-17T05:40:15;5.17;;;4.73;;
16510;SDS011;8368;48.772;8.754;2022-10-17T05:42:44;8.80;;;5.20;;
16510;SDS011;8368;48.772;8.754;2022-10-17T05:45:11;11.50;;;5.50;;
16510;SDS011;8368;48.772;8.754;2022-10-17T05:47:37;9.97;;;5.37;;
16510;SDS011;8368;48.772;8.754;2022-10-17T05:50:03;8.00;;;5.57;;
16510;SDS011;8368;48.772;8.754;2022-10-17T05:52:29;5.97;;;5.33;;
16510;SDS011;8368;48.772;8.754;2022-10-17T05:54:54;10.83;;;5.50;;
16510;SDS011;8368;48.772;8.754;2022-10-17T05:57:20;9.90;;;5.40;;
16510;SDS011;8368;48.772;8.754;2022-10-17T05:59:48;6.13;;;5.53;;
16510;SDS011;8368;48.772;8.754;2022-10-17T06:02:14;8.43;;;5.97;;
16510;SDS011;8368;48.772;8.754;2022-10-17T06:04:39;6.30;;;5.70;;
16510;SDS011;8368;48.772;8.754;2022-10-17T06:07:09;6.37;;;5.77;;
16510;SDS011;8368;48.772;8.754;2022-10-17T06:09:35;9.43;;;7.60;;
16510;SDS011;8368;48.772;8.754;2022-10-17T06:12:01;8.63;;;6.60;;
16510;SDS011;8368;48.772;8.754;2022-10-17T06:14:26;8.30;;;7.50;;
16510;SDS011;8368;48.772;8.754;2022-10-17T06:16:52;8.47;;;7.57;;
16510;SDS011;8368;48.772;8.754;2022-10-17T06:19:17;8.23;;;7.43;;
16510;SDS011;8368;48.772;8.754;2022-10-17T06:21:43;11.27;;;7.10;;
16510;SDS011;8368;48.772;8.754;2022-10-17T06:24:08;6.63;;;6.03;;
16510;SDS011;8368;48.772;8.754;2022-10-17T06:26:34;9.57;;;7.17;;
16510;SDS011;8368;48.772;8.754;2022-10-17T06:28:59;9.10;;;7.33;;
16510;SDS011;8368;48.772;8.754;2022-10-17T06:31:25;8.30;;;7.50;;
16510;SDS011;8368;48.772;8.754;2022-10-17T06:33:50;6.70;;;6.10;;
16510;SDS011;8368;48.772;8.754;2022-10-17T06:36:16;7.67;;;6.87;;
16510;SDS011;8368;48.772;8.754;2022-10-17T06:38:42;9.67;;;7.53;;
16510;SDS011;8368;48.772;8.754;2022-10-17T06:41:08;6.77;;;6.20;;
16510;SDS011;8368;48.772;8.754;2022-10-17T06:43:37;12.30;;;8.33;;
16510;SDS011;8368;48.772;8.754;2022-10-17T06:46:04;10.93;;;7.77;;
16510;SDS011;8368;48.772;8.754;2022-10-17T06:48:30;9.97;;;6.83;;
16510;SDS011;8368;48.772;8.754;2022-10-17T06:51:03;9.50;;;5.90;;
16510;SDS011;8368;48.772;8.754;2022-10-17T06:53:30;7.87;;;5.60;;
16510;SDS011;8368;48.772;8.754;2022-10-17T06:55:57;6.43;;;4.90;;
16510;SDS011;8368;48.772;8.754;2022-10-17T06:58:30;6.23;;;5.37;;
16510;SDS011;8368;48.772;8.754;2022-10-17T07:01:01;6.93;;;5.50;;
16510;SDS011;8368;48.772;8.754;2022-10-17T07:03:28;10.40;;;5.63;;
16510;SDS011;8368;48.772;8.754;2022-10-17T07:05:55;6.83;;;5.17;;
16510;SDS011;8368;48.772;8.754;2022-10-17T07:08:22;7.60;;;5.47;;
16510;SDS011;8368;48.772;8.754;2022-10-17T07:10:48;5.67;;;5.27;;
16510;SDS011;8368;48.772;8.754;2022-10-17T07:13:14;5.37;;;4.83;;
16510;SDS011;8368;48.772;8.754;2022-10-17T07:15:40;5.93;;;5.37;;
16510;SDS011;8368;48.772;8.754;2022-10-17T07:18:05;6.47;;;5.43;;
16510;SDS011;8368;48.772;8.754;2022-10-17T07:20:31;4.93;;;4.63;;
16510;SDS011;8368;48.772;8.754;2022-10-17T07:22:57;5.20;;;4.70;;
16510;SDS011;8368;48.772;8.754;2022-10-17T07:25:23;5.57;;;5.07;;
16510;SDS011;8368;48.772;8.754;2022-10-17T07:27:49;6.47;;;4.80;;
16510;SDS011;8368;48.772;8.754;2022-10-17T07:30:15;10.57;;;5.50;;
16510;SDS011;8368;48.772;8.754;2022-10-17T07:32:41;7.10;;;5.77;;
16510;SDS011;8368;48.772;8.754;2022-10-17T07:35:08;6.90;;;6.00;;
16510;SDS011;8368;48.772;8.754;2022-10-17T07:37:34;8.03;;;6.33;;
16510;SDS011;8368;48.772;8.754;2022-10-17T07:40:02;8.90;;;4.70;;
16510;SDS011;8368;48.772;8.754;2022-10-17T07:42:30;4.63;;;3.87;;
16510;SDS011;8368;48.772;8.754;2022-10-17T07:44:56;8.30;;;4.37;;
16510;SDS011;8368;48.772;8.754;2022-10-17T07:47:22;7.60;;;3.93;;
16510;SDS011;8368;48.772;8.754;2022-10-17T07:49:47;5.73;;;4.23;;
16510;SDS011;8368;48.772;8.754;2022-10-17T07:52:13;5.10;;;4.57;;
16510;SDS011;8368;48.772;8.754;2022-10-17T07:54:40;6.73;;;4.90;;
16510;SDS011;8368;48.772;8.754;2022-10-17T07:57:06;7.68;;;4.63;;
16510;SDS011;8368;48.772;8.754;2022-10-17T07:59:32;7.70;;;4.90;;
16510;SDS011;8368;48.772;8.754;2022-10-17T08:01:59;7.93;;;4.30;;
16510;SDS011;8368;48.772;8.754;2022-10-17T08:04:25;5.63;;;4.00;;
16510;SDS011;8368;48.772;8.754;2022-10-17T08:07:00;4.60;;;3.28;;
16510;SDS011;8368;48.772;8.754;2022-10-17T08:09:25;4.00;;;3.63;;
16510;SDS011;8368;48.772;8.754;2022-10-17T08:11:51;3.55;;;3.30;;
16510;SDS011;8368;48.772;8.754;2022-10-17T08:14:17;5.38;;;3.20;;
16510;SDS011;8368;48.772;8.754;2022-10-17T08:16:43;3.42;;;3.22;;
16510;SDS011;8368;48.772;8.754;2022-10-17T08:19:09;4.72;;;3.20;;
16510;SDS011;8368;48.772;8.754;2022-10-17T08:21:35;3.55;;;3.22;;
16510;SDS011;8368;48.772;8.754;2022-10-17T08:24:02;5.22;;;3.95;;
16510;SDS011;8368;48.772;8.754;2022-10-17T08:26:28;4.13;;;3.40;;
16510;SDS011;8368;48.772;8.754;2022-10-17T08:28:53;4.05;;;3.60;;
16510;SDS011;8368;48.772;8.754;2022-10-17T08:31:19;3.63;;;3.42;;
16510;SDS011;8368;48.772;8.754;2022-10-17T08:33:46;3.65;;;3.35;;
16510;SDS011;8368;48.772;8.754;2022-10-17T08:36:13;3.35;;;3.13;;
16510;SDS011;8368;48.772;8.754;2022-10-17T08:38:41;3.75;;;3.17;;
16510;SDS011;8368;48.772;8.754;2022-10-17T08:46:40;3.63;;;3.33;;
16510;SDS011;8368;48.772;8.754;2022-10-17T08:52:03;4.60;;;3.03;;
16510;SDS011;8368;48.772;8.754;2022-10-17T08:54:40;3.75;;;3.10;;
16510;SDS011;8368;48.772;8.754;2022-10-17T08:57:10;3.20;;;3.00;;
16510;SDS011;8368;48.772;8.754;2022-10-17T08:59:40;2.92;;;2.58;;
16510;SDS011;8368;48.772;8.754;2022-10-17T09:02:21;2.95;;;2.65;;
16510;SDS011;8368;48.772;8.754;2022-10-17T09:10:54;3.22;;;2.40;;
16510;SDS011;8368;48.772;8.754;2022-10-17T09:19:07;4.70;;;3.00;;
16510;SDS011;8368;48.772;8.754;2022-10-17T09:24:16;2.85;;;2.67;;
16510;SDS011;8368;48.772;8.754;2022-10-17T09:26:49;3.22;;;2.63;;
16510;SDS011;8368;48.772;8.754;2022-10-17T09:29:22;5.63;;;2.40;;
16510;SDS011;8368;48.772;8.754;2022-10-17T09:32:12;8.73;;;3.10;;
16510;SDS011;8368;48.772;8.754;2022-10-17T09:34:43;2.88;;;2.58;;
16510;SDS011;8368;48.772;8.754;2022-10-17T09:37:13;2.85;;;2.58;;
16510;SDS011;8368;48.772;8.754;2022-10-17T09:39:41;5.15;;;2.80;;
16510;SDS011;8368;48.772;8.754;2022-10-17T09:42:24;4.28;;;2.40;;
16510;SDS011;8368;48.772;8.754;2022-10-17T09:44:54;3.00;;;2.80;;
16510;SDS011;8368;48.772;8.754;2022-10-17T09:47:37;3.05;;;2.83;;
16510;SDS011;8368;48.772;8.754;2022-10-17T09:50:29;6.57;;;2.50;;
16510;SDS011;8368;48.772;8.754;2022-10-17T09:53:01;4.60;;;2.22;;
16510;SDS011;8368;48.772;8.754;2022-10-17T09:55:48;2.60;;;2.40;;
16510;SDS011;8368;48.772;8.754;2022-10-17T09:58:20;2.80;;;2.70;;
16510;SDS011;8368;48.772;8.754;2022-10-17T10:00:46;3.40;;;2.25;;
16510;SDS011;8368;48.772;8.754;2022-10-17T10:08:25;2.20;;;2.08;;
16510;SDS011;8368;48.772;8.754;2022-10-17T10:10:57;4.28;;;2.50;;
16510;SDS011;8368;48.772;8.754;2022-10-17T10:13:44;7.38;;;2.45;;
16510;SDS011;8368;48.772;8.754;2022-10-17T10:16:17;2.40;;;2.20;;
16510;SDS011;8368;48.772;8.754;2022-10-17T10:18:45;4.88;;;2.55;;
16510;SDS011;8368;48.772;8.754;2022-10-17T10:21:15;2.42;;;2.22;;
16510;SDS011;8368;48.772;8.754;2022-10-17T10:34:48;2.45;;;2.08;;
16510;SDS011;8368;48.772;8.754;2022-10-17T10:37:19;2.92;;;2.30;;
16510;SDS011;8368;48.772;8.754;2022-10-17T10:42:18;3.22;;;2.30;;
16510;SDS011;8368;48.772;8.754;2022-10-17T10:44:47;5.50;;;2.72;;
16510;SDS011;8368;48.772;8.754;2022-10-17T10:49:39;3.17;;;2.50;;
16510;SDS011;8368;48.772;8.754;2022-10-17T10:52:06;3.40;;;2.20;;
16510;SDS011;8368;48.772;8.754;2022-10-17T10:54:40;2.63;;;2.30;;
16510;SDS011;8368;48.772;8.754;2022-10-17T10:57:15;5.70;;;2.33;;
16510;SDS011;8368;48.772;8.754;2022-10-17T11:02:32;2.67;;;2.20;;
16510;SDS011;8368;48.772;8.754;2022-10-17T11:05:15;3.20;;;2.00;;
16510;SDS011;8368;48.772;8.754;2022-10-17T11:13:50;3.67;;;1.98;;
16510;SDS011;8368;48.772;8.754;2022-10-17T11:16:32;4.25;;;2.10;;
16510;SDS011;8368;48.772;8.754;2022-10-17T11:19:20;2.55;;;2.00;;
16510;SDS011;8368;48.772;8.754;2022-10-17T11:24:32;3.42;;;2.17;;
16510;SDS011;8368;48.772;8.754;2022-10-17T11:27:10;2.38;;;2.15;;
16510;SDS011;8368;48.772;8.754;2022-10-17T11:29:37;3.50;;;1.83;;
16510;SDS011;8368;48.772;8.754;2022-10-17T11:32:17;2.08;;;1.88;;
16510;SDS011;8368;48.772;8.754;2022-10-17T11:34:48;4.50;;;1.90;;
16510;SDS011;8368;48.772;8.754;2022-10-17T11:37:38;2.17;;;1.98;;
16510;SDS011;8368;48.772;8.754;2022-10-17T11:40:21;2.17;;;1.75;;
16510;SDS011;8368;48.772;8.754;2022-10-17T11:43:04;3.92;;;1.98;;
16510;SDS011;8368;48.772;8.754;2022-10-17T11:45:46;3.47;;;1.60;;
16510;SDS011;8368;48.772;8.754;2022-10-17T11:48:19;3.33;;;1.80;;
16510;SDS011;8368;48.772;8.754;2022-10-17T11:50:55;1.70;;;1.58;;
16510;SDS011;8368;48.772;8.754;2022-10-17T11:53:30;5.40;;;1.90;;
16510;SDS011;8368;48.772;8.754;2022-10-17T11:56:04;2.70;;;1.65;;
16510;SDS011;8368;48.772;8.754;2022-10-17T12:02:03;1.98;;;1.63;;
16510;SDS011;8368;48.772;8.754;2022-10-17T12:04:16;3.83;;;1.50;;
16510;SDS011;8368;48.772;8.754;2022-10-17T12:10:06;2.05;;;1.60;;
16510;SDS011;8368;48.772;8.754;2022-10-17T12:12:46;2.08;;;1.58;;
16510;SDS011;8368;48.772;8.754;2022-10-17T12:17:55;2.58;;;1.23;;
16510;SDS011;8368;48.772;8.754;2022-10-17T12:25:35;4.22;;;1.70;;
16510;SDS011;8368;48.772;8.754;2022-10-17T12:28:13;1.63;;;1.50;;
16510;SDS011;8368;48.772;8.754;2022-10-17T12:42:26;1.90;;;1.70;;
16510;SDS011;8368;48.772;8.754;2022-10-17T12:52:18;3.70;;;2.00;;
16510;SDS011;8368;48.772;8.754;2022-10-17T13:03:20;2.35;;;2.03;;
16510;SDS011;8368;48.772;8.754;2022-10-17T13:05:51;3.80;;;1.60;;
16510;SDS011;8368;48.772;8.754;2022-10-17T13:10:49;4.13;;;1.67;;
16510;SDS011;8368;48.772;8.754;2022-10-17T13:13:35;1.88;;;1.70;;
16510;SDS011;8368;48.772;8.754;2022-10-17T13:16:04;1.88;;;1.35;;
16510;SDS011;8368;48.772;8.754;2022-10-17T13:18:30;3.67;;;1.45;;
16510;SDS011;8368;48.772;8.754;2022-10-17T13:20:58;3.05;;;1.70;;
16510;SDS011;8368;48.772;8.754;2022-10-17T13:23:40;2.13;;;1.73;;
16510;SDS011;8368;48.772;8.754;2022-10-17T13:26:16;3.65;;;1.95;;
16510;SDS011;8368;48.772;8.754;2022-10-17T13:29:09;4.03;;;1.98;;
16510;SDS011;8368;48.772;8.754;2022-10-17T13:31:40;17.52;;;13.98;;
16510;SDS011;8368;48.772;8.754;2022-10-17T13:34:17;2.50;;;1.90;;
16510;SDS011;8368;48.772;8.754;2022-10-17T13:36:52;2.20;;;1.50;;
16510;SDS011;8368;48.772;8.754;2022-10-17T13:39:28;2.20;;;2.00;;
16510;SDS011;8368;48.772;8.754;2022-10-17T13:42:02;2.03;;;1.77;;
16510;SDS011;8368;48.772;8.754;2022-10-17T13:44:31;4.82;;;1.75;;
16510;SDS011;8368;48.772;8.754;2022-10-17T13:46:58;2.78;;;1.73;;
16510;SDS011;8368;48.772;8.754;2022-10-17T13:49:35;3.45;;;1.90;;
16510;SDS011;8368;48.772;8.754;2022-10-17T13:52:05;2.83;;;1.85;;
16510;SDS011;8368;48.772;8.754;2022-10-17T13:54:46;5.03;;;2.00;;
16510;SDS011;8368;48.772;8.754;2022-10-17T13:57:28;4.95;;;2.00;;
16510;SDS011;8368;48.772;8.754;2022-10-17T13:59:58;4.78;;;1.83;;
16510;SDS011;8368;48.772;8.754;2022-10-17T14:02:28;11.45;;;2.17;;
16510;SDS011;8368;48.772;8.754;2022-10-17T14:05:14;2.28;;;1.95;;
16510;SDS011;8368;48.772;8.754;2022-10-17T14:07:44;5.85;;;1.80;;
16510;SDS011;8368;48.772;8.754;2022-10-17T14:10:40;5.28;;;1.90;;
16510;SDS011;8368;48.772;8.754;2022-10-17T14:13:05;4.70;;;2.00;;
16510;SDS011;8368;48.772;8.754;2022-10-17T14:15:32;3.33;;;1.83;;
16510;SDS011;8368;48.772;8.754;2022-10-17T14:18:00;2.17;;;1.90;;
16510;SDS011;8368;48.772;8.754;2022-10-17T14:20:31;3.22;;;1.60;;
16510;SDS011;8368;48.772;8.754;2022-10-17T14:22:58;2.70;;;1.90;;
16510;SDS011;8368;48.772;8.754;2022-10-17T14:25:42;2.75;;;1.70;;
16510;SDS011;8368;48.772;8.754;2022-10-17T14:30:37;2.08;;;1.90;;
16510;SDS011;8368;48.772;8.754;2022-10-17T14:33:06;4.15;;;1.92;;
16510;SDS011;8368;48.772;8.754;2022-10-17T14:35:37;4.45;;;1.80;;
16510;SDS011;8368;48.772;8.754;2022-10-17T14:38:05;4.82;;;2.10;;
16510;SDS011;8368;48.772;8.754;2022-10-17T14:40:32;2.15;;;1.55;;
16510;SDS011;8368;48.772;8.754;2022-10-17T14:43:04;4.07;;;2.05;;
16510;SDS011;8368;48.772;8.754;2022-10-17T14:45:31;3.25;;;1.92;;
16510;SDS011;8368;48.772;8.754;2022-10-17T14:48:05;2.20;;;2.00;;
16510;SDS011;8368;48.772;8.754;2022-10-17T14:51:03;4.13;;;1.90;;
16510;SDS011;8368;48.772;8.754;2022-10-17T14:53:32;4.70;;;1.95;;
16510;SDS011;8368;48.772;8.754;2022-10-17T14:55:58;2.40;;;1.75;;
16510;SDS011;8368;48.772;8.754;2022-10-17T14:58:29;2.72;;;2.00;;
16510;SDS011;8368;48.772;8.754;2022-10-17T15:00:56;4.68;;;2.30;;
16510;SDS011;8368;48.772;8.754;2022-10-17T15:03:23;7.28;;;1.75;;
16510;SDS011;8368;48.772;8.754;2022-10-17T15:05:49;4.72;;;1.92;;
16510;SDS011;8368;48.772;8.754;2022-10-17T15:08:17;3.50;;;2.03;;
16510;SDS011;8368;48.772;8.754;2022-10-17T15:10:44;4.25;;;1.92;;
16510;SDS011;8368;48.772;8.754;2022-10-17T15:13:14;2.88;;;2.13;;
16510;SDS011;8368;48.772;8.754;2022-10-17T15:15:43;5.95;;;1.70;;
16510;SDS011;8368;48.772;8.754;2022-10-17T15:18:11;12.57;;;10.73;;
16510;SDS011;8368;48.772;8.754;2022-10-17T15:20:38;5.75;;;2.95;;
16510;SDS011;8368;48.772;8.754;2022-10-17T15:23:04;2.83;;;2.38;;
16510;SDS011;8368;48.772;8.754;2022-10-17T15:25:30;5.85;;;2.30;;
16510;SDS011;8368;48.772;8.754;2022-10-17T15:27:59;3.17;;;1.90;;
16510;SDS011;8368;48.772;8.754;2022-10-17T15:30:26;4.50;;;1.80;;
16510;SDS011;8368;48.772;8.754;2022-10-17T15:32:53;3.83;;;1.85;;
16510;SDS011;8368;48.772;8.754;2022-10-17T15:35:20;4.80;;;2.15;;
16510;SDS011;8368;48.772;8.754;2022-10-17T15:37:46;5.30;;;2.20;;
16510;SDS011;8368;48.772;8.754;2022-10-17T15:40:14;5.90;;;2.20;;
16510;SDS011;8368;48.772;8.754;2022-10-17T15:42:49;7.25;;;1.80;;
16510;SDS011;8368;48.772;8.754;2022-10-17T15:45:16;3.95;;;2.22;;
16510;SDS011;8368;48.772;8.754;2022-10-17T15:47:43;3.17;;;2.10;;
16510;SDS011;8368;48.772;8.754;2022-10-17T15:50:15;3.50;;;2.20;;
16510;SDS011;8368;48.772;8.754;2022-10-17T15:52:41;2.58;;;1.75;;
16510;SDS011;8368;48.772;8.754;2022-10-17T15:55:08;4.85;;;1.98;;
16510;SDS011;8368;48.772;8.754;2022-10-17T15:57:37;3.72;;;2.30;;
16510;SDS011;8368;48.772;8.754;2022-10-17T16:00:11;3.50;;;3.03;;
16510;SDS011;8368;48.772;8.754;2022-10-17T16:02:45;6.95;;;2.40;;
16510;SDS011;8368;48.772;8.754;2022-10-17T16:05:21;4.28;;;2.42;;
16510;SDS011;8368;48.772;8.754;2022-10-17T16:07:53;4.43;;;2.10;;
16510;SDS011;8368;48.772;8.754;2022-10-17T16:10:19;2.28;;;2.17;;
16510;SDS011;8368;48.772;8.754;2022-10-17T16:12:46;2.67;;;2.53;;
16510;SDS011;8368;48.772;8.754;2022-10-17T16:15:21;4.63;;;2.75;;
16510;SDS011;8368;48.772;8.754;2022-10-17T16:17:49;5.78;;;2.70;;
16510;SDS011;8368;48.772;8.754;2022-10-17T16:20:16;8.85;;;2.83;;
16510;SDS011;8368;48.772;8.754;2022-10-17T16:22:43;7.43;;;2.75;;
16510;SDS011;8368;48.772;8.754;2022-10-17T16:27:45;5.18;;;2.60;;
16510;SDS011;8368;48.772;8.754;2022-10-17T16:30:12;4.53;;;2.75;;
16510;SDS011;8368;48.772;8.754;2022-10-17T16:32:38;3.95;;;2.65;;
16510;SDS011;8368;48.772;8.754;2022-10-17T16:35:04;3.40;;;2.80;;
16510;SDS011;8368;48.772;8.754;2022-10-17T16:37:30;5.75;;;2.92;;
16510;SDS011;8368;48.772;8.754;2022-10-17T16:39:56;4.47;;;2.90;;
16510;SDS011;8368;48.772;8.754;2022-10-17T16:42:22;5.82;;;2.92;;
16510;SDS011;8368;48.772;8.754;2022-10-17T16:44:48;6.32;;;3.50;;
16510;SDS011;8368;48.772;8.754;2022-10-17T16:47:15;8.60;;;3.45;;
16510;SDS011;8368;48.772;8.754;2022-10-17T16:49:42;4.63;;;3.08;;
16510;SDS011;8368;48.772;8.754;2022-10-17T16:52:07;3.65;;;3.35;;
16510;SDS011;8368;48.772;8.754;2022-10-17T16:54:33;7.30;;;3.70;;
16510;SDS011;8368;48.772;8.754;2022-10-17T16:56:59;6.47;;;3.78;;
16510;SDS011;8368;48.772;8.754;2022-10-17T16:59:26;8.50;;;3.88;;
16510;SDS011;8368;48.772;8.754;2022-10-17T17:01:52;5.85;;;3.70;;
16510;SDS011;8368;48.772;8.754;2022-10-17T17:04:18;7.82;;;3.72;;
16510;SDS011;8368;48.772;8.754;2022-10-17T17:06:44;4.10;;;3.70;;
16510;SDS011;8368;48.772;8.754;2022-10-17T17:09:10;13.38;;;4.45;;
16510;SDS011;8368;48.772;8.754;2022-10-17T17:11:46;6.55;;;4.05;;
16510;SDS011;8368;48.772;8.754;2022-10-17T17:14:12;8.10;;;4.95;;
16510;SDS011;8368;48.772;8.754;2022-10-17T17:16:38;9.05;;;4.70;;
16510;SDS011;8368;48.772;8.754;2022-10-17T17:19:04;5.97;;;4.57;;
16510;SDS011;8368;48.772;8.754;2022-10-17T17:21:32;7.15;;;4.70;;
16510;SDS011;8368;48.772;8.754;2022-10-17T17:23:59;6.10;;;5.57;;
16510;SDS011;8368;48.772;8.754;2022-10-17T17:26:27;9.25;;;6.10;;
16510;SDS011;8368;48.772;8.754;2022-10-17T17:28:55;8.05;;;5.43;;